Preview of NWS' New Version of Forecast
This preview is not operational and should not be used for support decisions.

Terminal Aerodrome Forecast (TAF)

Issued by National Weather Service (NWS)

                            
863 
FTUS42 KKEY 181023 AAA
TAFEYW
TAF AMD
KEYW 181023Z 1810/1906 11007KT P6SM SCT020 BKN200
     FM182100 07007KT P6SM VCTS SCT020CB OVC250
     FM190400 11007KT P6SM SCT020 SCT200=